createdAt,value
2018-04-24T00:00:13.017Z,21.70
2018-04-24T00:01:17.741Z,21.70
2018-04-24T00:02:22.723Z,21.70
2018-04-24T00:03:27.592Z,21.70
2018-04-24T00:04:32.735Z,21.70
2018-04-24T00:05:37.559Z,21.70
2018-04-24T00:06:42.762Z,21.70
2018-04-24T00:07:47.856Z,21.70
2018-04-24T00:08:53.383Z,21.70
2018-04-24T00:09:58.589Z,21.70
2018-04-24T00:11:03.619Z,21.70
2018-04-24T00:12:08.519Z,21.70
2018-04-24T00:13:13.510Z,21.70
2018-04-24T00:14:18.723Z,21.70
2018-04-24T00:15:23.673Z,21.70
2018-04-24T00:16:28.649Z,21.70
2018-04-24T00:17:33.731Z,21.70
2018-04-24T00:18:38.842Z,21.70
2018-04-24T00:19:44.655Z,21.70
2018-04-24T00:20:49.510Z,21.70
2018-04-24T00:21:54.350Z,21.70
2018-04-24T00:22:59.984Z,21.70
2018-04-24T00:24:04.918Z,21.70
2018-04-24T00:25:09.621Z,21.70
2018-04-24T00:26:14.664Z,21.70
2018-04-24T00:27:19.602Z,21.70
2018-04-24T00:28:24.417Z,21.70
2018-04-24T00:29:29.282Z,21.70
2018-04-24T00:30:34.174Z,21.70
2018-04-24T00:31:39.220Z,21.80
2018-04-24T00:32:43.858Z,21.70
2018-04-24T00:33:48.857Z,21.70
2018-04-24T00:34:57.843Z,21.70
2018-04-24T00:36:03.443Z,21.70
2018-04-24T00:37:11.894Z,21.70
2018-04-24T00:38:22.473Z,21.70
2018-04-24T00:39:28.079Z,21.70
2018-04-24T00:40:33.164Z,21.70
2018-04-24T00:41:38.167Z,21.70
2018-04-24T00:42:43.213Z,21.70
2018-04-24T00:43:48.288Z,21.70
2018-04-24T00:44:53.201Z,21.70
2018-04-24T00:45:58.135Z,21.70
2018-04-24T00:47:03.012Z,21.70
2018-04-24T00:48:08.038Z,21.70
2018-04-24T00:49:13.040Z,21.70
2018-04-24T00:50:18.084Z,21.70
2018-04-24T00:51:23.191Z,21.70
2018-04-24T00:52:28.177Z,21.70
2018-04-24T00:53:33.134Z,21.70
2018-04-24T00:54:37.873Z,21.70
2018-04-24T00:55:42.653Z,21.70
2018-04-24T00:56:47.370Z,21.70
2018-04-24T00:57:52.403Z,21.70
2018-04-24T00:58:57.230Z,21.70
2018-04-24T01:00:01.915Z,21.70
2018-04-24T01:01:07.076Z,21.70
2018-04-24T01:02:12.194Z,21.70
2018-04-24T01:03:17.210Z,21.70
2018-04-24T01:04:22.197Z,21.70
2018-04-24T01:05:27.353Z,21.70
2018-04-24T01:06:32.296Z,21.70
2018-04-24T01:07:37.427Z,21.70
2018-04-24T01:08:42.517Z,21.70
2018-04-24T01:09:47.509Z,21.70
2018-04-24T01:10:52.465Z,21.70
2018-04-24T01:11:57.548Z,21.70
2018-04-24T01:13:02.446Z,21.70
2018-04-24T01:14:07.558Z,21.70
2018-04-24T01:15:12.387Z,21.70
2018-04-24T01:16:17.521Z,21.70
2018-04-24T01:17:22.520Z,21.70
2018-04-24T01:18:27.445Z,21.70
2018-04-24T01:19:32.522Z,21.70
2018-04-24T01:20:37.599Z,21.70
2018-04-24T01:21:42.553Z,21.70
2018-04-24T01:22:47.270Z,21.70
2018-04-24T01:23:52.191Z,21.70
2018-04-24T01:24:57.155Z,21.70
2018-04-24T01:26:02.104Z,21.70
2018-04-24T01:27:07.118Z,21.70
2018-04-24T01:28:12.007Z,21.70
2018-04-24T01:29:17.041Z,21.70
2018-04-24T01:30:22.012Z,21.70
2018-04-24T01:31:26.904Z,21.70
2018-04-24T01:32:31.844Z,21.70
2018-04-24T01:33:36.692Z,21.70
2018-04-24T01:34:41.781Z,21.70
2018-04-24T01:35:46.582Z,21.70
2018-04-24T01:36:51.622Z,21.70
2018-04-24T01:37:56.396Z,21.70
2018-04-24T01:39:01.526Z,21.70
2018-04-24T01:40:06.591Z,21.70
2018-04-24T01:41:11.603Z,21.70
2018-04-24T01:42:16.970Z,21.70
2018-04-24T01:43:21.932Z,21.70
2018-04-24T01:44:26.788Z,21.70
2018-04-24T01:45:31.593Z,21.70
2018-04-24T01:46:36.695Z,21.70
2018-04-24T01:47:41.509Z,21.70
2018-04-24T01:48:46.438Z,21.70
2018-04-24T01:49:51.500Z,21.70
2018-04-24T01:50:56.564Z,21.70
2018-04-24T01:52:01.494Z,21.70
2018-04-24T01:53:07.691Z,21.70
2018-04-24T01:54:12.521Z,21.70
2018-04-24T01:55:17.316Z,21.70
2018-04-24T01:56:22.103Z,21.70
2018-04-24T01:57:27.083Z,21.70
2018-04-24T01:58:32.075Z,21.70
2018-04-24T01:59:36.797Z,21.70
2018-04-24T02:00:41.803Z,21.70
2018-04-24T02:01:46.835Z,21.70
2018-04-24T02:02:51.856Z,21.70
2018-04-24T02:03:56.787Z,21.70
2018-04-24T02:05:01.884Z,21.70
2018-04-24T02:06:06.837Z,21.70
2018-04-24T02:07:11.726Z,21.70
2018-04-24T02:08:16.619Z,21.70
2018-04-24T02:09:21.734Z,21.70
2018-04-24T02:10:26.632Z,21.70
2018-04-24T02:11:31.540Z,21.70
2018-04-24T02:12:36.547Z,21.70
2018-04-24T02:13:41.465Z,21.60
2018-04-24T02:14:46.516Z,21.70
2018-04-24T02:15:51.588Z,21.70
2018-04-24T02:16:56.452Z,21.70
2018-04-24T02:18:01.139Z,21.70
2018-04-24T02:19:05.999Z,21.70
2018-04-24T02:20:11.036Z,21.70
2018-04-24T02:21:15.854Z,21.70
2018-04-24T02:22:20.869Z,21.70
2018-04-24T02:23:25.723Z,21.70
2018-04-24T02:24:30.613Z,21.70
2018-04-24T02:25:35.292Z,21.70
2018-04-24T02:26:40.262Z,21.60
2018-04-24T02:27:45.211Z,21.70
2018-04-24T02:28:50.026Z,21.70
2018-04-24T02:29:55.519Z,21.70
2018-04-24T02:31:00.512Z,21.70
2018-04-24T02:32:05.285Z,21.70
2018-04-24T02:33:10.344Z,21.70
2018-04-24T02:34:15.592Z,21.60
2018-04-24T02:35:20.690Z,21.70
2018-04-24T02:36:25.678Z,21.70
2018-04-24T02:37:30.496Z,21.70
2018-04-24T02:38:35.560Z,21.60
2018-04-24T02:39:40.295Z,21.60
2018-04-24T02:40:45.141Z,21.70
2018-04-24T02:41:49.782Z,21.70
2018-04-24T02:42:54.431Z,21.70
2018-04-24T02:43:59.402Z,21.60
2018-04-24T02:45:04.471Z,21.70
2018-04-24T02:46:09.229Z,21.70
2018-04-24T02:47:14.049Z,21.70
2018-04-24T02:48:18.964Z,21.60
2018-04-24T02:49:23.890Z,21.60
2018-04-24T02:50:28.708Z,21.70
2018-04-24T02:51:33.708Z,21.70
2018-04-24T02:52:38.714Z,21.70
2018-04-24T02:53:43.432Z,21.60
2018-04-24T02:54:48.565Z,21.70
2018-04-24T02:55:53.701Z,21.60
2018-04-24T02:56:58.607Z,21.70
2018-04-24T02:58:03.599Z,21.70
2018-04-24T02:59:08.615Z,21.60
2018-04-24T03:00:13.618Z,21.70
2018-04-24T03:01:18.747Z,21.70
2018-04-24T03:02:23.674Z,21.70
2018-04-24T03:03:28.713Z,21.60
2018-04-24T03:04:33.651Z,21.70
2018-04-24T03:05:38.749Z,21.60
2018-04-24T03:06:43.623Z,21.70
2018-04-24T03:07:48.681Z,21.60
2018-04-24T03:08:53.455Z,21.70
2018-04-24T03:09:58.507Z,21.60
2018-04-24T03:11:03.341Z,21.60
2018-04-24T03:12:08.249Z,21.60
2018-04-24T03:13:13.156Z,21.70
2018-04-24T03:14:18.021Z,21.60
2018-04-24T03:15:23.045Z,21.60
2018-04-24T03:16:27.984Z,21.60
2018-04-24T03:17:32.954Z,21.60
2018-04-24T03:18:38.153Z,21.60
2018-04-24T03:19:43.252Z,21.60
2018-04-24T03:20:48.087Z,21.60
2018-04-24T03:21:53.144Z,21.60
2018-04-24T03:22:58.029Z,21.60
2018-04-24T03:24:02.966Z,21.60
2018-04-24T03:25:08.063Z,21.60
2018-04-24T03:26:12.939Z,21.60
2018-04-24T03:27:17.898Z,21.60
2018-04-24T03:28:22.822Z,21.60
2018-04-24T03:29:27.621Z,21.60
2018-04-24T03:30:32.557Z,21.60
2018-04-24T03:31:37.468Z,21.60
2018-04-24T03:32:42.623Z,21.60
2018-04-24T03:33:47.649Z,21.60
2018-04-24T03:34:52.779Z,21.60
2018-04-24T03:35:57.976Z,21.60
2018-04-24T03:37:03.101Z,21.60
2018-04-24T03:38:08.033Z,21.60
2018-04-24T03:39:12.771Z,21.60
2018-04-24T03:40:17.740Z,21.60
2018-04-24T03:41:22.678Z,21.60
2018-04-24T03:42:27.990Z,21.60
2018-04-24T03:43:33.046Z,21.60
2018-04-24T03:44:38.136Z,21.60
2018-04-24T03:45:43.154Z,21.60
2018-04-24T03:46:48.164Z,21.60
2018-04-24T03:47:53.199Z,21.60
2018-04-24T03:48:58.230Z,21.60
2018-04-24T03:50:03.412Z,21.60
2018-04-24T03:51:08.381Z,21.60
2018-04-24T03:52:13.477Z,21.60
2018-04-24T03:53:18.470Z,21.60
2018-04-24T03:54:23.541Z,21.60
2018-04-24T03:55:28.377Z,21.60
2018-04-24T03:56:33.166Z,21.60
2018-04-24T03:57:38.261Z,21.60
2018-04-24T03:58:43.109Z,21.60
2018-04-24T03:59:48.174Z,21.60
2018-04-24T04:00:53.091Z,21.60
2018-04-24T04:01:57.952Z,21.60
2018-04-24T04:03:03.149Z,21.60
2018-04-24T04:04:08.100Z,21.60
2018-04-24T04:05:12.926Z,21.60
2018-04-24T04:06:17.792Z,21.60
2018-04-24T04:07:22.827Z,21.60
2018-04-24T04:08:27.671Z,21.60
2018-04-24T04:09:32.536Z,21.60
2018-04-24T04:10:37.412Z,21.50
2018-04-24T04:11:42.451Z,21.60
2018-04-24T04:12:47.564Z,21.50
2018-04-24T04:13:52.530Z,21.60
2018-04-24T04:14:57.414Z,21.60
2018-04-24T04:16:02.481Z,21.50
2018-04-24T04:17:07.476Z,21.60
2018-04-24T04:18:12.547Z,21.50
2018-04-24T04:19:17.353Z,21.50
2018-04-24T04:20:22.392Z,21.60
2018-04-24T04:21:27.444Z,21.60
2018-04-24T04:22:32.514Z,21.60
2018-04-24T04:23:37.351Z,21.60
2018-04-24T04:24:42.282Z,21.60
2018-04-24T04:25:47.176Z,21.50
2018-04-24T04:26:51.820Z,21.60
2018-04-24T04:27:56.624Z,21.60
2018-04-24T04:29:01.312Z,21.50
2018-04-24T04:30:06.244Z,21.60
2018-04-24T04:31:10.962Z,21.50
2018-04-24T04:32:15.905Z,21.50
2018-04-24T04:33:20.983Z,21.50
2018-04-24T04:34:26.066Z,21.60
2018-04-24T04:35:30.980Z,21.60
2018-04-24T04:36:36.023Z,21.50
2018-04-24T04:37:40.941Z,21.50
2018-04-24T04:38:45.892Z,21.50
2018-04-24T04:39:50.781Z,21.50
2018-04-24T04:40:55.616Z,21.50
2018-04-24T04:42:00.855Z,21.50
2018-04-24T04:43:07.001Z,21.50
2018-04-24T04:44:11.612Z,21.50
2018-04-24T04:45:16.304Z,21.50
2018-04-24T04:46:21.199Z,21.50
2018-04-24T04:47:26.067Z,21.50
2018-04-24T04:48:31.141Z,21.50
2018-04-24T04:49:35.987Z,21.50
2018-04-24T04:50:40.862Z,21.50
2018-04-24T04:51:45.804Z,21.50
2018-04-24T04:52:50.755Z,21.50
2018-04-24T04:53:55.770Z,21.50
2018-04-24T04:55:00.687Z,21.50
2018-04-24T04:56:05.633Z,21.50
2018-04-24T04:57:10.340Z,21.50
2018-04-24T04:58:15.194Z,21.50
2018-04-24T04:59:20.210Z,21.50
2018-04-24T05:00:25.521Z,21.50
2018-04-24T05:01:30.692Z,21.50
2018-04-24T05:02:35.866Z,21.50
2018-04-24T05:03:41.161Z,21.50
2018-04-24T05:04:46.461Z,21.50
2018-04-24T05:05:52.122Z,21.50
2018-04-24T05:06:56.912Z,21.50
2018-04-24T05:08:02.028Z,21.50
2018-04-24T05:09:07.055Z,21.50
2018-04-24T05:10:11.998Z,21.50
2018-04-24T05:11:17.022Z,21.60
2018-04-24T05:12:22.242Z,21.50
2018-04-24T05:13:27.361Z,21.50
2018-04-24T05:14:32.273Z,21.60
2018-04-24T05:15:37.195Z,21.60
2018-04-24T05:16:41.986Z,21.60
2018-04-24T05:17:47.094Z,21.60
2018-04-24T05:18:52.097Z,21.60
2018-04-24T05:19:56.918Z,21.60
2018-04-24T05:21:01.879Z,21.60
2018-04-24T05:22:06.933Z,21.60
2018-04-24T05:23:11.842Z,21.60
2018-04-24T05:24:16.878Z,21.60
2018-04-24T05:25:21.654Z,21.60
2018-04-24T05:26:26.759Z,21.50
2018-04-24T05:27:31.631Z,21.50
2018-04-24T05:28:36.672Z,21.50
2018-04-24T05:29:41.534Z,21.50
2018-04-24T05:30:47.190Z,21.50
2018-04-24T05:31:52.227Z,21.50
2018-04-24T05:32:57.032Z,21.50
2018-04-24T05:34:01.842Z,21.50
2018-04-24T05:35:06.832Z,21.50
2018-04-24T05:36:11.833Z,21.50
2018-04-24T05:37:17.010Z,21.60
2018-04-24T05:38:22.272Z,21.60
2018-04-24T05:39:27.267Z,21.60
2018-04-24T05:40:32.164Z,21.60
2018-04-24T05:41:37.022Z,21.60
2018-04-24T05:42:42.112Z,21.60
2018-04-24T05:43:46.833Z,21.70
2018-04-24T05:44:51.625Z,21.70
2018-04-24T05:45:56.653Z,21.70
2018-04-24T05:47:01.553Z,21.60
2018-04-24T05:48:06.517Z,21.60
2018-04-24T05:49:11.448Z,21.70
2018-04-24T05:50:16.369Z,21.60
2018-04-24T05:51:21.487Z,21.60
2018-04-24T05:52:26.703Z,21.60
2018-04-24T05:53:31.663Z,21.70
2018-04-24T05:54:36.717Z,21.60
2018-04-24T05:55:41.771Z,21.70
2018-04-24T05:56:46.683Z,21.60
2018-04-24T05:57:51.722Z,21.60
2018-04-24T05:58:56.556Z,21.60
2018-04-24T06:00:01.311Z,21.60
2018-04-24T06:01:06.288Z,21.60
2018-04-24T06:02:11.157Z,21.60
2018-04-24T06:03:16.196Z,21.60
2018-04-24T06:04:21.172Z,21.60
2018-04-24T06:05:25.988Z,21.60
2018-04-24T06:06:31.152Z,21.60
2018-04-24T06:07:36.074Z,21.60
2018-04-24T06:08:40.988Z,21.60
2018-04-24T06:09:45.872Z,21.50
2018-04-24T06:10:50.715Z,21.60
2018-04-24T06:11:55.610Z,21.60
2018-04-24T06:13:00.560Z,21.50
2018-04-24T06:14:05.417Z,21.50
2018-04-24T06:15:10.433Z,21.60
2018-04-24T06:16:15.278Z,21.50
2018-04-24T06:17:20.224Z,21.50
2018-04-24T06:18:25.211Z,21.50
2018-04-24T06:19:29.960Z,21.50
2018-04-24T06:20:35.010Z,21.50
2018-04-24T06:21:39.863Z,21.60
2018-04-24T06:22:44.826Z,21.50
2018-04-24T06:23:49.459Z,21.50
2018-04-24T06:24:54.368Z,21.50
2018-04-24T06:25:59.492Z,21.50
2018-04-24T06:27:04.409Z,21.50
2018-04-24T06:28:09.336Z,21.50
2018-04-24T06:29:14.228Z,21.50
2018-04-24T06:30:19.119Z,21.50
2018-04-24T06:31:23.929Z,21.50
2018-04-24T06:32:28.686Z,21.50
2018-04-24T06:33:33.720Z,21.50
2018-04-24T06:34:38.771Z,21.50
2018-04-24T06:35:43.545Z,21.50
2018-04-24T06:36:48.404Z,21.50
2018-04-24T06:37:53.563Z,21.50
2018-04-24T06:38:58.658Z,21.50
2018-04-24T06:40:03.509Z,21.50
2018-04-24T06:41:08.488Z,21.50
2018-04-24T06:42:13.348Z,21.50
2018-04-24T06:43:18.349Z,21.50
2018-04-24T06:44:23.014Z,21.50
2018-04-24T06:45:27.812Z,21.40
2018-04-24T06:46:32.999Z,21.50
2018-04-24T06:47:37.743Z,21.50
2018-04-24T06:48:43.635Z,21.40
2018-04-24T06:49:48.568Z,21.40
2018-04-24T06:50:53.490Z,21.40
2018-04-24T06:51:58.397Z,21.40
2018-04-24T06:53:03.514Z,21.40
2018-04-24T06:54:08.564Z,21.40
2018-04-24T06:55:13.452Z,21.40
2018-04-24T06:56:18.411Z,21.40
2018-04-24T06:57:23.595Z,21.40
2018-04-24T06:58:28.559Z,21.40
2018-04-24T06:59:33.551Z,21.30
2018-04-24T07:00:38.512Z,21.40
2018-04-24T07:01:43.500Z,21.30
2018-04-24T07:02:48.290Z,21.30
2018-04-24T07:03:54.043Z,21.40
2018-04-24T07:04:59.224Z,21.30
2018-04-24T07:06:04.098Z,21.40
2018-04-24T07:07:09.027Z,21.40
2018-04-24T07:08:14.021Z,21.40
2018-04-24T07:09:18.971Z,21.40
2018-04-24T07:10:23.933Z,21.40
2018-04-24T07:11:28.998Z,21.40
2018-04-24T07:12:34.013Z,21.40
2018-04-24T07:13:38.734Z,21.40
2018-04-24T07:14:43.845Z,21.40
2018-04-24T07:15:48.782Z,21.40
2018-04-24T07:16:53.544Z,21.40
2018-04-24T07:17:58.499Z,21.40
2018-04-24T07:19:03.513Z,21.40
2018-04-24T07:20:08.467Z,21.40
2018-04-24T07:21:13.354Z,21.40
2018-04-24T07:22:18.071Z,21.40
2018-04-24T07:23:22.925Z,21.40
2018-04-24T07:24:28.041Z,21.40
2018-04-24T07:25:32.908Z,21.40
2018-04-24T07:26:38.034Z,21.40
2018-04-24T07:27:43.628Z,21.40
2018-04-24T07:28:48.771Z,21.40
2018-04-24T07:29:54.798Z,21.40
2018-04-24T07:30:59.741Z,21.40
2018-04-24T07:32:04.766Z,21.40
2018-04-24T07:33:09.784Z,21.40
2018-04-24T07:34:14.814Z,21.40
2018-04-24T07:35:19.663Z,21.40
2018-04-24T07:36:24.512Z,21.40
2018-04-24T07:37:29.402Z,21.40
2018-04-24T07:38:34.234Z,21.40
2018-04-24T07:39:39.115Z,21.40
2018-04-24T07:40:44.137Z,21.40
2018-04-24T07:41:49.235Z,21.40
2018-04-24T07:42:54.248Z,21.40
2018-04-24T07:43:59.108Z,21.40
2018-04-24T07:45:03.975Z,21.40
2018-04-24T07:46:08.735Z,21.40
2018-04-24T07:47:13.693Z,21.40
2018-04-24T07:48:18.614Z,21.40
2018-04-24T07:49:23.665Z,21.40
2018-04-24T07:50:28.460Z,21.40
2018-04-24T07:51:33.172Z,21.40
2018-04-24T07:52:37.888Z,21.40
2018-04-24T07:53:42.718Z,21.40
2018-04-24T07:54:47.676Z,21.40
2018-04-24T07:55:52.696Z,21.40
2018-04-24T07:56:57.861Z,21.40
2018-04-24T07:58:02.748Z,21.40
2018-04-24T07:59:07.549Z,21.40
2018-04-24T08:00:12.341Z,21.40
2018-04-24T08:01:17.317Z,21.40
2018-04-24T08:02:22.472Z,21.40
2018-04-24T08:03:27.511Z,21.40
2018-04-24T08:04:32.406Z,21.40
2018-04-24T08:05:37.388Z,21.30
2018-04-24T08:06:42.397Z,21.40
2018-04-24T08:07:47.312Z,21.40
2018-04-24T08:08:52.226Z,21.40
2018-04-24T08:09:57.127Z,21.30
2018-04-24T08:11:01.970Z,21.30
2018-04-24T08:12:06.995Z,21.30
2018-04-24T08:13:11.835Z,21.30
2018-04-24T08:14:16.670Z,21.30
2018-04-24T08:15:21.669Z,21.40
2018-04-24T08:16:26.666Z,21.40
2018-04-24T08:17:31.536Z,21.30
2018-04-24T08:18:36.419Z,21.30
2018-04-24T08:19:42.170Z,21.30
2018-04-24T08:20:46.793Z,21.30
2018-04-24T08:21:51.582Z,21.40
2018-04-24T08:22:56.552Z,21.30
2018-04-24T08:24:01.484Z,21.40
2018-04-24T08:25:06.415Z,21.40
2018-04-24T08:26:11.319Z,21.30
2018-04-24T08:27:16.073Z,21.30
2018-04-24T08:28:20.920Z,21.30
2018-04-24T08:29:25.812Z,21.30
2018-04-24T08:30:30.883Z,21.30
2018-04-24T08:31:35.760Z,21.30
2018-04-24T08:32:40.579Z,21.30
2018-04-24T08:33:45.483Z,21.30
2018-04-24T08:34:50.354Z,21.30
2018-04-24T08:35:55.215Z,21.30
2018-04-24T08:37:00.105Z,21.30
2018-04-24T08:38:05.049Z,21.30
2018-04-24T08:39:10.216Z,21.30
2018-04-24T08:40:15.142Z,21.30
2018-04-24T08:41:20.177Z,21.30
2018-04-24T08:42:25.204Z,21.30
2018-04-24T08:43:29.907Z,21.30
2018-04-24T08:44:34.637Z,21.30
2018-04-24T08:45:39.603Z,21.30
2018-04-24T08:46:44.481Z,21.30
2018-04-24T08:47:49.357Z,21.30
2018-04-24T08:48:54.269Z,21.30
2018-04-24T08:49:59.295Z,21.30
2018-04-24T08:51:04.243Z,21.30
2018-04-24T08:52:09.111Z,21.30
2018-04-24T08:53:14.163Z,21.30
2018-04-24T08:54:19.067Z,21.30
2018-04-24T08:55:23.854Z,21.30
2018-04-24T08:56:28.818Z,21.30
2018-04-24T08:57:33.838Z,21.30
2018-04-24T08:58:38.848Z,21.30
2018-04-24T08:59:43.680Z,21.30
2018-04-24T09:00:48.793Z,21.30
2018-04-24T09:01:53.921Z,21.30
2018-04-24T09:02:58.708Z,21.30
2018-04-24T09:04:03.645Z,21.30
2018-04-24T09:05:08.437Z,21.30
2018-04-24T09:06:13.396Z,21.30
2018-04-24T09:07:18.292Z,21.30
2018-04-24T09:08:23.076Z,21.30
2018-04-24T09:09:27.915Z,21.30
2018-04-24T09:10:32.784Z,21.30
2018-04-24T09:11:37.599Z,21.30
2018-04-24T09:12:42.769Z,21.30
2018-04-24T09:13:47.685Z,21.30
2018-04-24T09:14:52.757Z,21.30
2018-04-24T09:15:57.715Z,21.30
2018-04-24T09:17:02.868Z,21.30
2018-04-24T09:18:07.814Z,21.30
2018-04-24T09:19:12.877Z,21.30
2018-04-24T09:20:17.805Z,21.30
2018-04-24T09:21:23.014Z,21.30
2018-04-24T09:22:27.891Z,21.30
2018-04-24T09:23:32.856Z,21.30
2018-04-24T09:24:37.859Z,21.30
2018-04-24T09:25:42.999Z,21.30
2018-04-24T09:26:47.937Z,21.30
2018-04-24T09:27:52.842Z,21.30
2018-04-24T09:28:57.633Z,21.30
2018-04-24T09:30:02.456Z,21.30
2018-04-24T09:31:07.532Z,21.30
2018-04-24T09:32:12.471Z,21.30
2018-04-24T09:33:17.553Z,21.30
2018-04-24T09:34:22.239Z,21.30
2018-04-24T09:35:27.032Z,21.30
2018-04-24T09:36:32.033Z,21.30
2018-04-24T09:37:37.020Z,21.30
2018-04-24T09:38:41.826Z,21.30
2018-04-24T09:39:46.865Z,21.30
2018-04-24T09:40:51.686Z,21.30
2018-04-24T09:41:56.637Z,21.30
2018-04-24T09:43:01.586Z,21.30
2018-04-24T09:44:06.642Z,21.30
2018-04-24T09:45:11.448Z,21.30
2018-04-24T09:46:16.613Z,21.30
2018-04-24T09:47:21.729Z,21.30
2018-04-24T09:48:26.672Z,21.30
2018-04-24T09:49:31.799Z,21.30
2018-04-24T09:50:36.761Z,21.30
2018-04-24T09:51:41.892Z,21.30
2018-04-24T09:52:46.783Z,21.30
2018-04-24T09:53:51.616Z,21.30
2018-04-24T09:54:56.676Z,21.30
2018-04-24T09:56:01.759Z,21.30
2018-04-24T09:57:06.807Z,21.30
2018-04-24T09:58:11.850Z,21.30
2018-04-24T09:59:16.846Z,21.30
2018-04-24T10:00:21.852Z,21.30
2018-04-24T10:01:26.660Z,21.30
2018-04-24T10:02:31.579Z,21.30
2018-04-24T10:03:36.384Z,21.30
2018-04-24T10:04:41.517Z,21.30
2018-04-24T10:05:46.496Z,21.30
2018-04-24T10:06:51.631Z,21.30
2018-04-24T10:07:56.527Z,21.30
2018-04-24T10:09:01.429Z,21.30
2018-04-24T10:10:06.425Z,21.30
2018-04-24T10:11:11.519Z,21.30
2018-04-24T10:12:16.670Z,21.30
2018-04-24T10:13:21.571Z,21.30
2018-04-24T10:14:26.574Z,21.30
2018-04-24T10:15:31.769Z,21.30
2018-04-24T10:16:36.819Z,21.30
2018-04-24T10:17:41.894Z,21.30
2018-04-24T10:18:47.024Z,21.30
2018-04-24T10:19:52.012Z,21.30
2018-04-24T10:20:56.980Z,21.30
2018-04-24T10:22:01.783Z,21.30
2018-04-24T10:23:06.670Z,21.30
2018-04-24T10:24:11.778Z,21.30
2018-04-24T10:25:16.811Z,21.30
2018-04-24T10:26:21.597Z,21.30
2018-04-24T10:27:26.306Z,21.30
2018-04-24T10:28:31.313Z,21.30
2018-04-24T10:29:36.063Z,21.30
2018-04-24T10:30:40.698Z,21.30
2018-04-24T10:31:45.428Z,21.30
2018-04-24T10:32:50.439Z,21.30
2018-04-24T10:33:55.402Z,21.30
2018-04-24T10:35:00.269Z,21.30
2018-04-24T10:36:05.220Z,21.30
2018-04-24T10:37:10.159Z,21.30
2018-04-24T10:38:15.165Z,21.30
2018-04-24T10:39:19.888Z,21.30
2018-04-24T10:40:24.923Z,21.30
2018-04-24T10:41:29.710Z,21.30
2018-04-24T10:42:34.610Z,21.30
2018-04-24T10:43:39.571Z,21.30
2018-04-24T10:44:44.637Z,21.30
2018-04-24T10:45:49.622Z,21.30
2018-04-24T10:46:54.527Z,21.30
2018-04-24T10:47:59.545Z,21.30
2018-04-24T10:49:04.517Z,21.30
2018-04-24T10:50:09.647Z,21.30
2018-04-24T10:51:14.714Z,21.30
2018-04-24T10:52:19.606Z,21.30
2018-04-24T10:53:24.577Z,21.30
2018-04-24T10:54:29.691Z,21.20
2018-04-24T10:55:34.744Z,21.20
2018-04-24T10:56:39.727Z,21.20
2018-04-24T10:57:44.677Z,21.30
2018-04-24T10:58:49.392Z,21.30
2018-04-24T10:59:54.259Z,21.30
2018-04-24T11:00:59.085Z,21.30
2018-04-24T11:02:04.159Z,21.30
2018-04-24T11:03:09.048Z,21.20
2018-04-24T11:04:13.970Z,21.30
2018-04-24T11:05:19.098Z,21.20
2018-04-24T11:06:24.156Z,21.30
2018-04-24T11:07:29.106Z,21.20
2018-04-24T11:08:34.102Z,21.20
2018-04-24T11:09:39.039Z,21.30
2018-04-24T11:10:43.801Z,21.30
2018-04-24T11:11:48.997Z,21.30
2018-04-24T11:12:54.133Z,21.20
2018-04-24T11:13:59.106Z,21.30
2018-04-24T11:15:04.106Z,21.30
2018-04-24T11:16:09.143Z,21.20
2018-04-24T11:17:14.031Z,21.30
2018-04-24T11:18:18.881Z,21.30
2018-04-24T11:19:23.820Z,21.20
2018-04-24T11:20:28.947Z,21.20
2018-04-24T11:21:33.935Z,21.20
2018-04-24T11:22:39.006Z,21.20
2018-04-24T11:23:43.673Z,21.20
2018-04-24T11:24:48.719Z,21.20
2018-04-24T11:25:53.909Z,21.20
2018-04-24T11:26:58.982Z,21.20
2018-04-24T11:28:04.014Z,21.20
2018-04-24T11:29:08.885Z,21.20
2018-04-24T11:30:13.905Z,21.20
2018-04-24T11:31:18.779Z,21.20
2018-04-24T11:32:23.835Z,21.20
2018-04-24T11:33:28.743Z,21.20
2018-04-24T11:34:33.513Z,21.20
2018-04-24T11:35:38.446Z,21.20
2018-04-24T11:36:43.286Z,21.20
2018-04-24T11:37:48.375Z,21.20
2018-04-24T11:38:53.092Z,21.20
2018-04-24T11:39:58.181Z,21.20
2018-04-24T11:41:03.216Z,21.20
2018-04-24T11:42:08.321Z,21.20
2018-04-24T11:43:12.983Z,21.20
2018-04-24T11:44:17.835Z,21.30
2018-04-24T11:45:22.826Z,21.20
2018-04-24T11:46:27.884Z,21.20
2018-04-24T11:47:32.821Z,21.20
2018-04-24T11:48:37.862Z,21.20
2018-04-24T11:49:43.017Z,21.20
2018-04-24T11:50:47.906Z,21.10
2018-04-24T11:51:52.995Z,21.20
2018-04-24T11:52:58.102Z,21.20
2018-04-24T11:54:03.260Z,21.10
2018-04-24T11:55:08.052Z,21.10
2018-04-24T11:56:13.122Z,21.20
2018-04-24T11:57:18.184Z,21.20
2018-04-24T11:58:22.944Z,21.10
2018-04-24T11:59:28.101Z,21.10
2018-04-24T12:00:33.011Z,21.10
2018-04-24T12:01:37.842Z,21.10
2018-04-24T12:02:43.003Z,21.10
2018-04-24T12:03:47.742Z,21.10
2018-04-24T12:04:52.777Z,21.10
2018-04-24T12:05:57.784Z,21.10
2018-04-24T12:07:02.926Z,21.10
2018-04-24T12:08:07.896Z,21.10
2018-04-24T12:09:12.768Z,21.10
2018-04-24T12:10:17.813Z,21.10
2018-04-24T12:11:22.512Z,21.10
2018-04-24T12:12:27.548Z,21.10
2018-04-24T12:13:32.447Z,21.10
2018-04-24T12:14:37.194Z,21.10
2018-04-24T12:15:42.169Z,21.10
2018-04-24T12:16:46.916Z,21.10
2018-04-24T12:17:52.020Z,21.10
2018-04-24T12:18:57.088Z,21.10
2018-04-24T12:20:01.904Z,21.10
2018-04-24T12:21:06.889Z,21.10
2018-04-24T12:22:11.923Z,21.10
2018-04-24T12:23:16.939Z,21.10
2018-04-24T12:24:21.890Z,21.10
2018-04-24T12:25:26.672Z,21.10
2018-04-24T12:26:31.526Z,21.10
2018-04-24T12:27:36.431Z,21.10
2018-04-24T12:28:41.187Z,21.10
2018-04-24T12:29:46.131Z,21.10
2018-04-24T12:30:51.110Z,21.10
2018-04-24T12:31:55.930Z,21.10
2018-04-24T12:33:00.851Z,21.10
2018-04-24T12:34:05.779Z,21.10
2018-04-24T12:35:10.479Z,21.10
2018-04-24T12:36:15.357Z,21.10
2018-04-24T12:37:20.520Z,21.10
2018-04-24T12:38:25.448Z,21.10
2018-04-24T12:39:30.486Z,21.10
2018-04-24T12:40:35.433Z,21.10
2018-04-24T12:41:40.383Z,21.10
2018-04-24T12:42:45.491Z,21.10
2018-04-24T12:43:50.585Z,21.10
2018-04-24T12:44:59.913Z,21.20
2018-04-24T12:46:05.067Z,21.10
2018-04-24T12:47:10.005Z,21.20
2018-04-24T12:48:14.968Z,21.20
2018-04-24T12:49:19.952Z,21.20
2018-04-24T12:50:24.811Z,21.10
2018-04-24T12:51:29.858Z,21.20
2018-04-24T12:52:34.754Z,21.20
2018-04-24T12:53:39.654Z,21.20
2018-04-24T12:54:44.907Z,21.20
2018-04-24T12:55:50.407Z,21.10
2018-04-24T12:56:55.264Z,21.20
2018-04-24T12:58:00.268Z,21.10
2018-04-24T12:59:05.824Z,21.10
2018-04-24T13:00:10.694Z,21.20
2018-04-24T13:01:15.767Z,21.20
2018-04-24T13:02:20.675Z,21.20
2018-04-24T13:03:25.720Z,21.10
2018-04-24T13:04:30.807Z,21.20
2018-04-24T13:05:35.870Z,21.20
2018-04-24T13:06:40.860Z,21.20
2018-04-24T13:07:45.936Z,21.20
2018-04-24T13:08:50.757Z,21.10
2018-04-24T13:09:55.665Z,21.10
2018-04-24T13:11:00.413Z,21.20
2018-04-24T13:12:05.279Z,21.20
2018-04-24T13:13:10.346Z,21.10
2018-04-24T13:14:15.093Z,21.10
2018-04-24T13:15:20.032Z,21.10
2018-04-24T13:16:24.753Z,21.10
2018-04-24T13:17:29.698Z,21.10
2018-04-24T13:18:34.612Z,21.10
2018-04-24T13:19:39.429Z,21.10
2018-04-24T13:20:44.430Z,21.10
2018-04-24T13:21:49.676Z,21.10
2018-04-24T13:22:54.636Z,21.10
2018-04-24T13:23:59.428Z,21.10
2018-04-24T13:25:04.351Z,21.10
2018-04-24T13:26:09.416Z,21.10
2018-04-24T13:27:14.218Z,21.10
2018-04-24T13:28:20.432Z,21.10
2018-04-24T13:29:25.525Z,21.10
2018-04-24T13:30:30.452Z,21.10
2018-04-24T13:31:35.344Z,21.10
2018-04-24T13:32:40.455Z,21.10
2018-04-24T13:33:45.526Z,21.10
2018-04-24T13:34:50.298Z,21.10
2018-04-24T13:35:55.292Z,21.10
2018-04-24T13:37:00.472Z,21.10
2018-04-24T13:38:05.372Z,21.10
2018-04-24T13:39:10.439Z,21.10
2018-04-24T13:40:15.697Z,21.10
2018-04-24T13:41:20.771Z,21.10
2018-04-24T13:42:25.811Z,21.20
2018-04-24T13:43:30.844Z,21.20
2018-04-24T13:44:35.755Z,21.10
2018-04-24T13:45:40.671Z,21.20
2018-04-24T13:46:45.734Z,21.10
2018-04-24T13:47:50.601Z,21.10
2018-04-24T13:48:55.747Z,21.10
2018-04-24T13:50:00.508Z,21.10
2018-04-24T13:51:05.688Z,21.10
2018-04-24T13:52:10.491Z,21.10
2018-04-24T13:53:15.509Z,21.10
2018-04-24T13:54:20.696Z,21.10
2018-04-24T13:55:25.886Z,21.10
2018-04-24T13:56:30.852Z,21.10